Flight Track Log - Related Links

Times and Time Zones

All times are in EST time to prevent confusion due to time zone crossing. See the UAL33 flight status page for this flight to view local times or setup timezone preferences in your user account.

Time Position Orientation Groundspeed Altitude Reporting Facility
EST Latitude Longitude Course Direction KTS MPH feet Rate Location/Type
Wed 04:49:00 AM 36.0129 140.8573 57° Northeast  Level FlightAware Approximate
Wed 04:50:00 AM 36.0952 141.0149 57° Northeast  Level FlightAware Approximate
Wed 04:51:00 AM 36.1773 141.1729 57° Northeast  Level FlightAware Approximate
Wed 04:52:00 AM 36.2592 141.3312 57° Northeast  Level FlightAware Approximate
Wed 04:53:00 AM 36.3409 141.4898 57° Northeast  Level FlightAware Approximate
Wed 04:54:00 AM 36.4224 141.6488 57° Northeast  Level FlightAware Approximate
Wed 04:55:00 AM 36.5037 141.8080 58° Northeast  Level FlightAware Approximate
Wed 04:56:00 AM 36.5847 141.9677 58° Northeast  Level FlightAware Approximate
Wed 04:57:00 AM 36.6655 142.1276 58° Northeast  Level FlightAware Approximate
Wed 04:58:00 AM 36.7462 142.2879 58° Northeast  Level FlightAware Approximate
Wed 04:59:00 AM 36.8266 142.4485 58° Northeast  Level FlightAware Approximate
Wed 05:00:00 AM 36.9068 142.6095 58° Northeast  Level FlightAware Approximate
Wed 05:01:00 AM 36.9884 142.7695 58° Northeast  Level Estimated
Wed 05:02:00 AM 37.0679 142.9314 58° Northeast  Level FlightAware Approximate
Wed 05:03:00 AM 37.1472 143.0935 58° Northeast  Level FlightAware Approximate
Wed 05:04:00 AM 37.2263 143.2560 59° Northeast  Level FlightAware Approximate
Wed 05:05:00 AM 37.3051 143.4189 59° Northeast  Level FlightAware Approximate
Wed 05:06:00 AM 37.3838 143.5821 59° Northeast  Level FlightAware Approximate
Wed 05:07:00 AM 37.4622 143.7457 59° Northeast  Level FlightAware Approximate
Wed 05:08:00 AM 37.5423 143.9080 59° Northeast  Level Estimated
Wed 05:09:00 AM 37.6203 144.0722 59° Northeast  Level FlightAware Approximate
Wed 05:10:00 AM 37.6982 144.2367 59° Northeast  Level FlightAware Approximate
Wed 05:11:00 AM 37.7758 144.4015 59° Northeast  Level FlightAware Approximate
Wed 05:12:00 AM 37.8531 144.5667 59° Northeast  Level FlightAware Approximate
Wed 05:13:00 AM 37.9303 144.7323 59° Northeast  Level FlightAware Approximate
Wed 05:14:00 AM 38.0072 144.8981 59° Northeast  Level FlightAware Approximate
Wed 05:15:00 AM 38.0839 145.0644 60° Northeast  Level FlightAware Approximate
Wed 05:16:00 AM 38.1603 145.2310 60° Northeast  Level FlightAware Approximate
Wed 05:17:00 AM 38.2365 145.3979 60° Northeast  Level FlightAware Approximate
Wed 05:18:00 AM 38.3124 145.5652 60° Northeast  Level FlightAware Approximate
Wed 05:19:00 AM 38.3882 145.7328 60° Northeast  Level FlightAware Approximate
Wed 05:20:00 AM 38.4634 145.9001 60° Northeast  Level FlightAware Approximate
Wed 05:21:00 AM 38.5383 146.0678 60° Northeast  Level FlightAware Approximate
Wed 05:22:00 AM 38.6130 146.2359 60° Northeast  Level FlightAware Approximate
Wed 05:23:00 AM 38.6875 146.4043 60° Northeast  Level FlightAware Approximate
Wed 05:24:00 AM 38.7618 146.5730 61° Northeast  Level FlightAware Approximate
Wed 05:25:00 AM 38.8358 146.7421 61° Northeast  Level FlightAware Approximate
Wed 05:26:00 AM 38.9095 146.9115 61° Northeast  Level FlightAware Approximate
Wed 05:27:00 AM 38.9830 147.0813 61° Northeast  Level FlightAware Approximate
Wed 05:28:00 AM 39.0563 147.2514 61° Northeast  Level FlightAware Approximate
Wed 05:29:00 AM 39.1293 147.4220 61° Northeast  Level FlightAware Approximate
Wed 05:30:00 AM 39.2020 147.5928 61° Northeast  Level FlightAware Approximate
Wed 05:31:00 AM 39.2745 147.7640 61° Northeast  Level FlightAware Approximate
Wed 05:32:00 AM 39.3468 147.9356 61° Northeast  Level FlightAware Approximate
Wed 05:33:00 AM 39.4188 148.1075 61° Northeast  Level FlightAware Approximate
Wed 05:34:00 AM 39.4906 148.2797 62° Northeast  Level FlightAware Approximate
Wed 05:35:00 AM 39.5621 148.4524 62° Northeast  Level FlightAware Approximate
Wed 05:36:00 AM 39.6333 148.6253 62° Northeast  Level FlightAware Approximate
Wed 05:37:00 AM 39.7043 148.7987 62° Northeast  Level FlightAware Approximate
Wed 05:38:00 AM 39.7750 148.9724 62° Northeast  Level FlightAware Approximate
Wed 05:39:00 AM 39.8455 149.1464 62° Northeast  Level FlightAware Approximate
Wed 05:40:00 AM 39.9157 149.3208 62° Northeast  Level FlightAware Approximate
Wed 05:41:00 AM 39.9856 149.4956 62° Northeast  Level FlightAware Approximate
Wed 05:42:00 AM 40.0553 149.6707 62° Northeast  Level FlightAware Approximate
Wed 05:43:00 AM 40.1247 149.8462 63° Northeast  Level FlightAware Approximate
Wed 05:44:00 AM 40.1939 150.0220 63° Northeast  Level FlightAware Approximate
Wed 05:45:00 AM 40.2628 150.1982 63° Northeast  Level FlightAware Approximate
Wed 05:46:00 AM 40.3314 150.3747 63° Northeast  Level FlightAware Approximate
Wed 05:47:00 AM 40.3998 150.5517 63° Northeast  Level FlightAware Approximate
Wed 05:48:00 AM 40.4678 150.7289 63° Northeast  Level FlightAware Approximate
Wed 05:49:00 AM 40.5356 150.9066 63° Northeast  Level FlightAware Approximate
Wed 05:50:00 AM 40.6032 151.0845 63° Northeast  Level FlightAware Approximate
Wed 05:51:00 AM 40.6704 151.2629 64° Northeast  Level FlightAware Approximate
Wed 05:52:00 AM 40.7374 151.4416 64° Northeast  Level FlightAware Approximate
Wed 05:53:00 AM 40.8041 151.6207 64° Northeast  Level FlightAware Approximate
Wed 05:54:00 AM 40.8706 151.8001 64° Northeast  Level FlightAware Approximate
Wed 05:55:00 AM 40.9367 151.9798 64° Northeast  Level FlightAware Approximate
Wed 05:56:00 AM 41.0026 152.1600 64° Northeast  Level FlightAware Approximate
Wed 05:57:00 AM 41.0682 152.3405 64° Northeast  Level FlightAware Approximate
Wed 05:58:00 AM 41.1335 152.5213 64° Northeast  Level FlightAware Approximate
Wed 05:59:00 AM 41.2006 152.7013 65° Northeast  Level Estimated
Wed 06:00:00 AM 41.2653 152.8829 65° Northeast  Level FlightAware Approximate
Wed 06:01:00 AM 41.3297 153.0648 65° Northeast  Level FlightAware Approximate
Wed 06:02:00 AM 41.3938 153.2472 65° Northeast  Level FlightAware Approximate
Wed 06:03:00 AM 41.4577 153.4299 65° Northeast  Level FlightAware Approximate
Wed 06:04:00 AM 41.5213 153.6129 65° Northeast  Level FlightAware Approximate
Wed 06:05:00 AM 41.5845 153.7963 65° Northeast  Level FlightAware Approximate
Wed 06:06:00 AM 41.6475 153.9801 65° Northeast  Level FlightAware Approximate
Wed 06:07:00 AM 41.7102 154.1642 65° Northeast  Level FlightAware Approximate
Wed 06:08:00 AM 41.7726 154.3487 66° East  Level FlightAware Approximate
Wed 06:09:00 AM 41.8347 154.5335 66° East  Level FlightAware Approximate
Wed 06:10:00 AM 41.8965 154.7187 66° East  Level FlightAware Approximate
Wed 06:11:00 AM 41.9601 154.9030 66° East  Level Estimated
Wed 06:12:00 AM 42.0213 155.0889 66° East  Level FlightAware Approximate
Wed 06:13:00 AM 42.0822 155.2751 66° East  Level FlightAware Approximate
Wed 06:14:00 AM 42.1428 155.4618 66° East  Level FlightAware Approximate
Wed 06:15:00 AM 42.2032 155.6487 66° East  Level FlightAware Approximate
Wed 06:16:00 AM 42.2632 155.8361 67° East  Level FlightAware Approximate
Wed 06:17:00 AM 42.3229 156.0238 67° East  Level FlightAware Approximate
Wed 06:18:00 AM 42.3823 156.2118 67° East  Level FlightAware Approximate
Wed 06:19:00 AM 42.4414 156.4002 67° East  Level FlightAware Approximate
Wed 06:20:00 AM 42.5002 156.5889 67° East  Level FlightAware Approximate
Wed 06:21:00 AM 42.5587 156.7781 67° East  Level FlightAware Approximate
Wed 06:22:00 AM 42.6168 156.9675 67° East  Level FlightAware Approximate
Wed 06:23:00 AM 42.6747 157.1573 67° East  Level FlightAware Approximate
Wed 06:24:00 AM 42.7322 157.3475 68° East  Level FlightAware Approximate
Wed 06:25:00 AM 42.7894 157.5380 68° East  Level FlightAware Approximate
Wed 06:26:00 AM 42.8464 157.7289 68° East  Level FlightAware Approximate
Wed 06:27:00 AM 42.9029 157.9201 68° East  Level FlightAware Approximate
Wed 06:28:00 AM 42.9592 158.1117 68° East  Level FlightAware Approximate
Wed 06:29:00 AM 43.0152 158.3036 68° East  Level FlightAware Approximate
Wed 06:30:00 AM 43.0708 158.4959 68° East  Level FlightAware Approximate
Wed 06:31:00 AM 43.1261 158.6885 68° East  Level FlightAware Approximate
Wed 06:32:00 AM 43.1811 158.8815 69° East  Level FlightAware Approximate
Wed 06:33:00 AM 43.2357 159.0748 69° East  Level FlightAware Approximate
Wed 06:34:00 AM 43.2901 159.2684 69° East  Level FlightAware Approximate
Wed 06:35:00 AM 43.3441 159.4624 69° East  Level FlightAware Approximate
Wed 06:36:00 AM 43.3978 159.6568 69° East  Level FlightAware Approximate
Wed 06:37:00 AM 43.4511 159.8515 69° East  Level FlightAware Approximate
Wed 06:38:00 AM 43.5041 160.0465 69° East  Level FlightAware Approximate
Wed 06:39:00 AM 43.5568 160.2419 70° East  Level FlightAware Approximate
Wed 06:40:00 AM 43.6091 160.4376 70° East  Level FlightAware Approximate
Wed 06:41:00 AM 43.6612 160.6337 70° East  Level FlightAware Approximate
Wed 06:42:00 AM 43.7128 160.8301 70° East  Level FlightAware Approximate
Wed 06:43:00 AM 43.7642 161.0268 70° East  Level FlightAware Approximate
Wed 06:44:00 AM 43.8152 161.2239 70° East  Level FlightAware Approximate
Wed 06:45:00 AM 43.8658 161.4213 70° East  Level FlightAware Approximate
Wed 06:46:00 AM 43.9162 161.6190 70° East  Level FlightAware Approximate
Wed 06:47:00 AM 43.9662 161.8171 71° East  Level FlightAware Approximate
Wed 06:48:00 AM 44.0158 162.0155 71° East  Level FlightAware Approximate
Wed 06:49:00 AM 44.0651 162.2143 71° East  Level FlightAware Approximate
Wed 06:50:00 AM 44.1141 162.4133 71° East  Level FlightAware Approximate
Wed 06:51:00 AM 44.1627 162.6127 71° East  Level FlightAware Approximate
Wed 06:52:00 AM 44.2109 162.8125 71° East  Level FlightAware Approximate
Wed 06:53:00 AM 44.2588 163.0125 71° East  Level FlightAware Approximate
Wed 06:54:00 AM 44.3064 163.2129 72° East  Level FlightAware Approximate
Wed 06:55:00 AM 44.3536 163.4136 72° East  Level FlightAware Approximate
Wed 06:56:00 AM 44.4005 163.6146 72° East  Level FlightAware Approximate
Wed 06:57:00 AM 44.4470 163.8160 72° East  Level FlightAware Approximate
Wed 06:58:00 AM 44.4931 164.0177 72° East  Level FlightAware Approximate
Wed 06:59:00 AM 44.5389 164.2196 72° East  Level FlightAware Approximate
Wed 07:00:00 AM 44.5843 164.4219 72° East  Level FlightAware Approximate
Wed 07:01:00 AM 44.6294 164.6246 73° East  Level FlightAware Approximate
Wed 07:02:00 AM 44.6741 164.8275 73° East  Level FlightAware Approximate
Wed 07:02:02 AM 40.6167 167.6500 77° East 612 704 38,000  Level Oakland Oceanic (ODAPS)
Wed 07:03:00 AM 44.7185 165.0307 73° East  Level FlightAware Approximate
Wed 07:04:00 AM 44.7625 165.2343 73° East  Level FlightAware Approximate
Wed 07:05:00 AM 44.8061 165.4381 73° East  Level FlightAware Approximate
Wed 07:06:00 AM 44.8494 165.6423 73° East  Level FlightAware Approximate
Wed 07:07:00 AM 44.8923 165.8468 73° East  Level FlightAware Approximate
Wed 07:08:00 AM 40.8661 169.1423 78° East 612 704 38,000  Level FlightAware Transoceanic
Wed 07:09:00 AM 40.9002 169.3564 78° East 612 704 38,000  Level FlightAware Transoceanic
Wed 07:10:00 AM 40.9339 169.5707 78° East 612 704 38,000  Level FlightAware Transoceanic
Wed 07:11:00 AM 40.9671 169.7853 78° East 612 704 38,000  Level FlightAware Transoceanic
Wed 07:12:00 AM 41.0000 170.0000 87° East 612 704 38,000  Level FlightAware Transoceanic
Wed 07:13:00 AM 41.0090 170.2123 87° East 612 704 38,000  Level FlightAware Transoceanic
Wed 07:13:17 AM 41.0167 170.2333 87° East 577 664 38,000  Level Oakland Oceanic (ODAPS)
Wed 07:14:00 AM 41.0176 170.4247 87° East 612 704 38,000  Level FlightAware Transoceanic
Wed 07:15:00 AM 41.0258 170.6372 87° East 612 704 38,000  Level FlightAware Transoceanic
Wed 07:15:16 AM 41.0333 170.6667 87° East 606 697 38,000  Level Oakland Oceanic (ODAPS)
Wed 07:16:00 AM 41.0337 170.8497 87° East 612 704 38,000  Level FlightAware Transoceanic
Wed 07:17:00 AM 41.0411 171.0622 87° East 612 704 38,000  Level FlightAware Transoceanic
Wed 07:18:00 AM 41.0482 171.2748 88° East 612 704 38,000  Level FlightAware Transoceanic
Wed 07:19:00 AM 41.0613 171.5058 88° East 577 664 38,000  Level FlightAware Transoceanic
Wed 07:20:00 AM 41.0674 171.7180 88° East 577 664 38,000  Level FlightAware Transoceanic
Wed 07:21:00 AM 41.0732 171.9384 88° East 606 697 38,000  Level FlightAware Transoceanic
Wed 07:22:00 AM 41.0784 172.1505 88° East 606 697 38,000  Level FlightAware Transoceanic
Wed 07:23:00 AM 41.0833 172.3627 88° East 606 697 38,000  Level FlightAware Transoceanic
Wed 07:24:00 AM 41.0878 172.5748 88° East 606 697 38,000  Level FlightAware Transoceanic
Wed 07:25:00 AM 41.0919 172.7870 89° East 606 697 38,000  Level FlightAware Transoceanic
Wed 07:26:00 AM 41.0957 172.9992 89° East 606 697 38,000  Level FlightAware Transoceanic
Wed 07:27:00 AM 41.0990 173.2115 89° East 606 697 38,000  Level FlightAware Transoceanic
Wed 07:28:00 AM 41.1019 173.4237 89° East 606 697 38,000  Level FlightAware Transoceanic
Wed 07:29:00 AM 41.1045 173.6360 89° East 606 697 38,000  Level FlightAware Transoceanic
Wed 07:29:09 AM 41.1000 173.7667 89° East 606 697 38,000  Level Oakland Oceanic (ODAPS)
Wed 07:30:00 AM 41.1067 173.8483 89° East 606 697 38,000  Level FlightAware Transoceanic
Wed 07:31:00 AM 41.1084 174.0606 89° East 606 697 38,000  Level FlightAware Transoceanic
Wed 07:32:00 AM 41.1098 174.2729 90° East 606 697 38,000  Level FlightAware Transoceanic
Wed 07:33:00 AM 41.1108 174.4852 90° East 606 697 38,000  Level FlightAware Transoceanic
Wed 07:34:00 AM 41.1114 174.6975 90° East 606 697 38,000  Level FlightAware Transoceanic
Wed 07:35:00 AM 41.1069 175.0143 90° East 606 697 38,000  Level FlightAware Transoceanic
Wed 07:36:00 AM 41.1067 175.2223 90° East 606 697 38,000  Level FlightAware Transoceanic
Wed 07:37:00 AM 41.1062 175.4303 90° East 606 697 38,000  Level FlightAware Transoceanic
Wed 07:38:00 AM 41.1053 175.6382 90° East 606 697 38,000  Level FlightAware Transoceanic
Wed 07:39:00 AM 41.1040 175.8462 91° East 606 697 38,000  Level FlightAware Transoceanic
Wed 07:40:00 AM 41.1024 176.0541 91° East 606 697 38,000  Level FlightAware Transoceanic
Wed 07:41:00 AM 41.1003 176.2620 91° East 606 697 38,000  Level FlightAware Transoceanic
Wed 07:42:00 AM 41.0979 176.4699 91° East 606 697 38,000  Level FlightAware Transoceanic
Wed 07:43:00 AM 41.0952 176.6778 91° East 606 697 38,000  Level FlightAware Transoceanic
Wed 07:43:02 AM 41.1000 176.8000 91° East 588 677 38,000  Level Oakland Oceanic (ODAPS)
Wed 07:44:00 AM 41.0920 176.8857 91° East 606 697 38,000  Level FlightAware Transoceanic
Wed 07:45:00 AM 41.0885 177.0936 91° East 606 697 38,000  Level FlightAware Transoceanic
Wed 07:46:00 AM 41.0846 177.3014 91° East 606 697 38,000  Level FlightAware Transoceanic
Wed 07:47:00 AM 41.0803 177.5092 92° East 606 697 38,000  Level FlightAware Transoceanic
Wed 07:48:00 AM 41.0757 177.7170 92° East 606 697 38,000  Level FlightAware Transoceanic
Wed 07:49:00 AM 41.0706 178.0811 92° East 588 677 38,000  Level FlightAware Transoceanic
Wed 07:50:00 AM 41.0644 178.2945 92° East 588 677 38,000  Level FlightAware Transoceanic
Wed 07:51:00 AM 41.0577 178.5079 92° East 588 677 38,000  Level FlightAware Transoceanic
Wed 07:52:00 AM 41.0506 178.7212 93° East 588 677 38,000  Level FlightAware Transoceanic
Wed 07:53:00 AM 41.0432 178.9345 93° East 588 677 38,000  Level FlightAware Transoceanic
Wed 07:54:00 AM 41.0353 179.1477 93° East 588 677 38,000  Level FlightAware Transoceanic
Wed 07:55:00 AM 41.0271 179.3609 93° East 588 677 38,000  Level FlightAware Transoceanic
Wed 07:56:00 AM 41.0184 179.5740 93° East 588 677 38,000  Level FlightAware Transoceanic
Wed 07:56:54 AM 41.0167 179.7333 95° East 568 654 38,000  Level Oakland Oceanic (ODAPS)
Wed 07:57:00 AM 41.0094 179.7870 93° East 588 677 38,000  Level FlightAware Transoceanic
Wed 07:58:00 AM 41.0000 -180.0000 87° East 588 677 38,000  Level FlightAware Transoceanic
Wed 07:58:13 AM 41.0000 180.0000 87° East 563 648 38,000  Level Oakland Oceanic (ODAPS)
Wed 07:59:00 AM 41.0083 -179.8043 87° East 588 677 38,000  Level FlightAware Transoceanic
Wed 08:00:00 AM 41.0163 -179.6086 87° East 588 677 38,000  Level FlightAware Transoceanic
Wed 08:01:00 AM 41.0239 -179.4128 87° East 588 677 38,000  Level FlightAware Transoceanic
Wed 08:02:00 AM 41.0312 -179.2170 87° East 588 677 38,000  Level FlightAware Transoceanic
Wed 08:03:00 AM 41.0382 -179.0212 87° East 568 654 38,000  Level FlightAware Transoceanic
Wed 08:04:00 AM 41.0473 -178.7518 88° East 563 648 38,000  Level FlightAware Transoceanic
Wed 08:05:00 AM 41.0539 -178.5436 88° East 563 648 38,000  Level FlightAware Transoceanic
Wed 08:06:00 AM 41.0601 -178.3354 88° East 563 648 38,000  Level FlightAware Transoceanic
Wed 08:07:00 AM 41.0659 -178.1271 88° East 563 648 38,000  Level FlightAware Transoceanic
Wed 08:08:00 AM 41.0713 -177.9188 88° East 563 648 38,000  Level FlightAware Transoceanic
Wed 08:09:00 AM 41.0764 -177.7104 88° East 563 648 38,000  Level FlightAware Transoceanic
Wed 08:10:00 AM 41.0811 -177.5021 88° East 563 648 38,000  Level FlightAware Transoceanic
Wed 08:10:43 AM 41.0833 -177.4500 88° East 553 636 38,000  Level Oakland Oceanic (ODAPS)
Wed 08:11:00 AM 41.0854 -177.2937 88° East 563 648 38,000  Level FlightAware Transoceanic
Wed 08:12:00 AM 41.0894 -177.0852 89° East 563 648 38,000  Level FlightAware Transoceanic
Wed 08:13:00 AM 41.0930 -176.8768 89° East 563 648 38,000  Level FlightAware Transoceanic
Wed 08:14:00 AM 41.0961 -176.6683 89° East 563 648 38,000  Level FlightAware Transoceanic
Wed 08:15:00 AM 41.0990 -176.4598 89° East 563 648 38,000  Level FlightAware Transoceanic
Wed 08:16:00 AM 41.1014 -176.2513 89° East 563 648 38,000  Level FlightAware Transoceanic
Wed 08:17:00 AM 41.1028 -176.2079 89° East 553 636 38,000  Level FlightAware Transoceanic
Wed 08:18:00 AM 41.1048 -176.0008 89° East 553 636 38,000  Level FlightAware Transoceanic
Wed 08:19:00 AM 41.1063 -175.7937 89° East 553 636 38,000  Level FlightAware Transoceanic
Wed 08:20:00 AM 41.1075 -175.5866 90° East 553 636 38,000  Level FlightAware Transoceanic
Wed 08:21:00 AM 41.1084 -175.3795 90° East 553 636 38,000  Level FlightAware Transoceanic
Wed 08:22:00 AM 41.1088 -175.1724 90° East 553 636 38,000  Level FlightAware Transoceanic
Wed 08:23:00 AM 41.1089 -174.9652 90° East 553 636 38,000  Level FlightAware Transoceanic
Wed 08:24:00 AM 41.1086 -174.7581 90° East 553 636 38,000  Level FlightAware Transoceanic
Wed 08:24:35 AM 41.1000 -174.6667 90° East 543 625 38,000  Level Oakland Oceanic (ODAPS)
Wed 08:25:00 AM 41.1080 -174.5510 90° East 553 636 38,000  Level FlightAware Transoceanic
Wed 08:26:00 AM 41.1070 -174.3439 90° East 553 636 38,000  Level FlightAware Transoceanic
Wed 08:27:00 AM 41.1056 -174.1368 91° East 553 636 38,000  Level FlightAware Transoceanic
Wed 08:28:00 AM 41.1038 -173.9297 91° East 553 636 38,000  Level FlightAware Transoceanic
Wed 08:29:00 AM 41.1017 -173.7226 91° East 553 636 38,000  Level FlightAware Transoceanic
Wed 08:30:00 AM 41.0927 -173.4989 91° East 543 625 38,000  Level FlightAware Transoceanic
Wed 08:31:00 AM 41.0903 -173.3043 91° East 543 625 38,000  Level FlightAware Transoceanic
Wed 08:32:00 AM 41.0876 -173.1097 91° East 543 625 38,000  Level FlightAware Transoceanic
Wed 08:33:00 AM 41.0846 -172.9151 91° East 543 625 38,000  Level FlightAware Transoceanic
Wed 08:34:00 AM 41.0812 -172.7206 91° East 543 625 38,000  Level FlightAware Transoceanic
Wed 08:35:00 AM 41.0775 -172.5261 92° East 543 625 38,000  Level FlightAware Transoceanic
Wed 08:36:00 AM 41.0735 -172.3316 92° East 543 625 38,000  Level FlightAware Transoceanic
Wed 08:37:00 AM 41.0692 -172.1371 92° East 543 625 38,000  Level FlightAware Transoceanic
Wed 08:38:00 AM 41.0645 -171.9426 92° East 543 625 38,000 698 Level FlightAware Transoceanic
Wed 08:38:26 AM 41.0667 -171.9500 92° East 534 615 39,000  Climbing Oakland Oceanic (ODAPS)
Wed 08:39:00 AM 41.0596 -171.7482 92° East 543 625 38,000 -638 Descending FlightAware Transoceanic
Wed 08:40:00 AM 41.0542 -171.5538 92° East 543 625 38,000  Level FlightAware Transoceanic
Wed 08:41:00 AM 41.0486 -171.3595 92° East 543 625 38,000  Level FlightAware Transoceanic
Wed 08:42:00 AM 41.0426 -171.1651 92° East 543 625 38,000  Level FlightAware Transoceanic
Wed 08:43:00 AM 41.0364 -170.9708 93° East 543 625 38,000 500 Level FlightAware Transoceanic
Wed 08:44:00 AM 41.0306 -170.7795 93° East 534 615 39,000 500 Climbing FlightAware Transoceanic
Wed 08:45:00 AM 41.0234 -170.5846 93° East 534 615 39,000  Level FlightAware Transoceanic
Wed 08:46:00 AM 41.0160 -170.3897 93° East 534 615 39,000  Level FlightAware Transoceanic
Wed 08:47:00 AM 41.0081 -170.1948 93° East 534 615 39,000  Level FlightAware Transoceanic
Wed 08:48:00 AM 41.0000 -170.0000 87° East 534 615 39,000  Level FlightAware Transoceanic
Wed 08:48:30 AM 41.0000 -170.0000 87° East 530 610 39,000  Level Oakland Oceanic (ODAPS)
Wed 08:49:00 AM 41.0081 -169.8081 87° East 534 615 39,000  Level FlightAware Transoceanic
Wed 08:50:00 AM 41.0160 -169.6161 87° East 534 615 39,000  Level FlightAware Transoceanic
Wed 08:51:00 AM 41.0235 -169.4241 87° East 534 615 39,000  Level FlightAware Transoceanic
Wed 08:52:00 AM 41.0307 -169.2321 87° East 534 615 39,000  Level FlightAware Transoceanic
Wed 08:52:20 AM 41.0333 -169.2500 87° East 522 601 39,000  Level Oakland Oceanic (ODAPS)
Wed 08:53:00 AM 41.0376 -169.0400 87° East 534 615 39,000  Level FlightAware Transoceanic
Wed 08:54:00 AM 41.0441 -168.8479 87° East 530 610 39,000  Level FlightAware Transoceanic
Wed 08:55:00 AM 41.0504 -168.6557 88° East 530 610 39,000  Level FlightAware Transoceanic
Wed 08:56:00 AM 41.0563 -168.4635 88° East 530 610 39,000  Level FlightAware Transoceanic
Wed 08:57:00 AM 41.0619 -168.2713 88° East 530 610 39,000  Level FlightAware Transoceanic
Wed 08:58:00 AM 41.0696 -168.0947 88° East 522 601 39,000  Level FlightAware Transoceanic
Wed 08:59:00 AM 41.0746 -167.9020 88° East 522 601 39,000  Level FlightAware Transoceanic
Wed 09:00:00 AM 41.0792 -167.7093 88° East 522 601 39,000  Level FlightAware Transoceanic
Wed 09:01:00 AM 41.0835 -167.5166 88° East 522 601 39,000  Level FlightAware Transoceanic
Wed 09:02:00 AM 41.0874 -167.3238 88° East 522 601 39,000  Level FlightAware Transoceanic
Wed 09:03:00 AM 41.0911 -167.1310 89° East 522 601 39,000  Level FlightAware Transoceanic
Wed 09:04:00 AM 41.0944 -166.9382 89° East 522 601 39,000  Level FlightAware Transoceanic
Wed 09:05:00 AM 41.0974 -166.7454 89° East 522 601 39,000  Level FlightAware Transoceanic
Wed 09:06:00 AM 41.1001 -166.5526 89° East 522 601 39,000  Level FlightAware Transoceanic
Wed 09:06:11 AM 41.1000 -166.6167 89° East 519 597 39,000  Level Oakland Oceanic (ODAPS)
Wed 09:07:00 AM 41.1025 -166.3598 89° East 522 601 39,000  Level FlightAware Transoceanic
Wed 09:08:00 AM 41.1045 -166.1669 89° East 522 601 39,000  Level FlightAware Transoceanic
Wed 09:09:00 AM 41.1062 -165.9740 89° East 522 601 39,000  Level FlightAware Transoceanic
Wed 09:10:00 AM 41.1076 -165.7812 90° East 522 601 39,000  Level FlightAware Transoceanic
Wed 09:11:00 AM 41.1087 -165.5883 90° East 522 601 39,000  Level FlightAware Transoceanic
Wed 09:12:00 AM 41.1098 -165.4815 90° East 519 597 39,000  Level FlightAware Transoceanic
Wed 09:13:00 AM 41.1103 -165.2923 90° East 519 597 39,000  Level FlightAware Transoceanic
Wed 09:14:00 AM 41.1105 -165.1031 90° East 519 597 39,000  Level FlightAware Transoceanic
Wed 09:15:00 AM 41.1105 -164.9139 90° East 519 597 39,000  Level FlightAware Transoceanic
Wed 09:16:00 AM 41.1101 -164.7247 90° East 519 597 39,000  Level FlightAware Transoceanic
Wed 09:17:00 AM 41.1094 -164.5355 90° East 519 597 39,000  Level FlightAware Transoceanic
Wed 09:18:00 AM 41.1084 -164.3463 90° East 519 597 39,000  Level FlightAware Transoceanic
Wed 09:19:00 AM 41.1071 -164.1571 91° East 519 597 39,000  Level FlightAware Transoceanic
Wed 09:20:00 AM 41.1054 -163.9679 91° East 519 597 39,000  Level FlightAware Transoceanic
Wed 09:20:03 AM 41.1000 -163.9833 91° East 519 597 39,000  Level Oakland Oceanic (ODAPS)
Wed 09:21:00 AM 41.1035 -163.7787 91° East 519 597 39,000  Level FlightAware Transoceanic
Wed 09:22:00 AM 41.1013 -163.5895 91° East 519 597 39,000  Level FlightAware Transoceanic
Wed 09:23:00 AM 41.0987 -163.4004 91° East 519 597 39,000  Level FlightAware Transoceanic
Wed 09:24:00 AM 41.0959 -163.2112 91° East 519 597 39,000  Level FlightAware Transoceanic
Wed 09:25:00 AM 41.0927 -163.0221 91° East 519 597 39,000  Level FlightAware Transoceanic
Wed 09:26:00 AM 41.0854 -162.8441 91° East 519 597 39,000  Level FlightAware Transoceanic
Wed 09:27:00 AM 41.0819 -162.6543 91° East 519 597 39,000  Level FlightAware Transoceanic
Wed 09:28:00 AM 41.0781 -162.4645 92° East 519 597 39,000  Level FlightAware Transoceanic
Wed 09:29:00 AM 41.0739 -162.2748 92° East 519 597 39,000  Level FlightAware Transoceanic
Wed 09:30:00 AM 41.0695 -162.0850 92° East 519 597 39,000  Level FlightAware Transoceanic
Wed 09:31:00 AM 41.0647 -161.8953 92° East 519 597 39,000  Level FlightAware Transoceanic
Wed 09:32:00 AM 41.0597 -161.7056 92° East 519 597 39,000  Level FlightAware Transoceanic
Wed 09:33:00 AM 41.0543 -161.5159 92° East 519 597 39,000 517 Level FlightAware Transoceanic
Wed 09:33:56 AM 41.0500 -161.3667 92° East 515 593 40,000  Climbing Oakland Oceanic (ODAPS)
Wed 09:34:00 AM 41.0486 -161.3263 92° East 519 597 39,000 -938 Descending FlightAware Transoceanic
Wed 09:35:00 AM 41.0426 -161.1367 92° East 519 597 39,000  Level FlightAware Transoceanic
Wed 09:36:00 AM 41.0362 -160.9472 93° East 519 597 39,000  Level FlightAware Transoceanic
Wed 09:37:00 AM 41.0296 -160.7577 93° East 519 597 39,000  Level FlightAware Transoceanic
Wed 09:38:00 AM 41.0227 -160.5682 93° East 519 597 39,000  Level FlightAware Transoceanic
Wed 09:39:00 AM 41.0154 -160.3788 93° East 519 597 39,000 500 Level FlightAware Transoceanic
Wed 09:40:00 AM 41.0081 -160.1951 93° East 515 593 40,000 500 Climbing FlightAware Transoceanic
Wed 09:41:00 AM 41.0000 -160.0000 87° East 515 593 40,000  Level FlightAware Transoceanic
Wed 09:41:14 AM 41.0000 -160.0000 87° East 519 597 40,000  Level Oakland Oceanic (ODAPS)
Wed 09:42:00 AM 41.0083 -159.8043 87° East 515 593 40,000  Level FlightAware Transoceanic
Wed 09:43:00 AM 41.0163 -159.6086 87° East 515 593 40,000  Level FlightAware Transoceanic
Wed 09:44:00 AM 41.0239 -159.4128 87° East 515 593 40,000  Level FlightAware Transoceanic
Wed 09:45:00 AM 41.0312 -159.2170 87° East 515 593 40,000  Level FlightAware Transoceanic
Wed 09:46:00 AM 41.0382 -159.0212 87° East 515 593 40,000  Level FlightAware Transoceanic
Wed 09:47:00 AM 41.0441 -158.8479 87° East 519 597 40,000  Level FlightAware Transoceanic
Wed 09:47:48 AM 41.0500 -158.7500 88° East 522 601 40,000  Level Oakland Oceanic (ODAPS)
Wed 09:48:00 AM 41.0504 -158.6557 88° East 519 597 40,000  Level FlightAware Transoceanic
Wed 09:49:00 AM 41.0563 -158.4635 88° East 519 597 40,000  Level FlightAware Transoceanic
Wed 09:50:00 AM 41.0619 -158.2713 88° East 519 597 40,000  Level FlightAware Transoceanic
Wed 09:51:00 AM 41.0672 -158.0790 88° East 519 597 40,000  Level FlightAware Transoceanic
Wed 09:52:00 AM 41.0722 -157.8867 88° East 519 597 40,000  Level FlightAware Transoceanic
Wed 09:53:00 AM 41.0768 -157.6944 88° East 519 597 40,000  Level FlightAware Transoceanic
Wed 09:54:00 AM 41.0816 -157.5838 88° East 522 601 40,000  Level FlightAware Transoceanic
Wed 09:55:00 AM 41.0857 -157.3893 88° East 522 601 40,000  Level FlightAware Transoceanic
Wed 09:56:00 AM 41.0895 -157.1949 89° East 522 601 40,000  Level FlightAware Transoceanic
Wed 09:57:00 AM 41.0930 -157.0004 89° East 522 601 40,000  Level FlightAware Transoceanic
Wed 09:58:00 AM 41.0961 -156.8058 89° East 522 601 40,000  Level FlightAware Transoceanic
Wed 09:59:00 AM 41.0990 -156.6113 89° East 522 601 40,000  Level FlightAware Transoceanic
Wed 10:00:00 AM 41.1015 -156.4167 89° East 522 601 40,000  Level FlightAware Transoceanic
Wed 10:01:00 AM 41.1036 -156.2221 89° East 522 601 40,000  Level FlightAware Transoceanic
Wed 10:01:40 AM 41.1000 -156.1167 89° East 518 596 40,000  Level Oakland Oceanic (ODAPS)
Wed 10:02:00 AM 41.1054 -156.0275 89° East 522 601 40,000  Level FlightAware Transoceanic
Wed 10:03:00 AM 41.1069 -155.8329 89° East 522 601 40,000  Level FlightAware Transoceanic
Wed 10:04:00 AM 41.1081 -155.6383 90° East 522 601 40,000  Level FlightAware Transoceanic
Wed 10:05:00 AM 41.1090 -155.4437 90° East 522 601 40,000  Level FlightAware Transoceanic
Wed 10:06:00 AM 41.1095 -155.2491 90° East 522 601 40,000  Level FlightAware Transoceanic
Wed 10:07:00 AM 41.1097 -155.0545 90° East 522 601 40,000  Level FlightAware Transoceanic
Wed 10:08:00 AM 41.1058 -154.8181 90° East 518 596 40,000  Level FlightAware Transoceanic
Wed 10:09:00 AM 41.1055 -154.6326 90° East 518 596 40,000  Level FlightAware Transoceanic
Wed 10:10:00 AM 41.1048 -154.4471 90° East 518 596 40,000  Level FlightAware Transoceanic
Wed 10:11:00 AM 41.1039 -154.2616 90° East 518 596 40,000  Level FlightAware Transoceanic
Wed 10:12:00 AM 41.1026 -154.0761 91° East 518 596 40,000  Level FlightAware Transoceanic
Wed 10:13:00 AM 41.1011 -153.8906 91° East 518 596 40,000  Level FlightAware Transoceanic
Wed 10:14:00 AM 41.0992 -153.7051 91° East 518 596 40,000  Level FlightAware Transoceanic
Wed 10:15:00 AM 41.0971 -153.5196 91° East 518 596 40,000  Level FlightAware Transoceanic
Wed 10:15:31 AM 41.1000 -153.4833 91° East 516 594 40,000  Level Oakland Oceanic (ODAPS)
Wed 10:16:00 AM 41.0947 -153.3342 91° East 518 596 40,000  Level FlightAware Transoceanic
Wed 10:17:00 AM 41.0919 -153.1487 91° East 518 596 40,000  Level FlightAware Transoceanic
Wed 10:18:00 AM 41.0889 -152.9633 91° East 518 596 40,000  Level FlightAware Transoceanic
Wed 10:19:00 AM 41.0856 -152.7779 91° East 518 596 40,000  Level FlightAware Transoceanic
Wed 10:20:00 AM 41.0819 -152.5925 92° East 518 596 40,000  Level FlightAware Transoceanic
Wed 10:21:00 AM 41.0798 -152.3823 92° East 516 594 40,000  Level FlightAware Transoceanic
Wed 10:22:00 AM 41.0754 -152.1988 92° East 516 594 40,000  Level FlightAware Transoceanic
Wed 10:23:00 AM 41.0707 -152.0154 92° East 516 594 40,000  Level FlightAware Transoceanic
Wed 10:24:00 AM 41.0657 -151.8320 92° East 516 594 40,000  Level FlightAware Transoceanic
Wed 10:25:00 AM 41.0604 -151.6487 92° East 516 594 40,000  Level FlightAware Transoceanic
Wed 10:26:00 AM 41.0549 -151.4653 92° East 516 594 40,000  Level FlightAware Transoceanic
Wed 10:27:00 AM 41.0490 -151.2820 92° East 516 594 40,000  Level FlightAware Transoceanic
Wed 10:28:00 AM 41.0429 -151.0988 93° East 516 594 40,000  Level FlightAware Transoceanic
Wed 10:29:00 AM 41.0365 -150.9156 93° East 516 594 40,000  Level FlightAware Transoceanic
Wed 10:29:24 AM 41.0333 -150.8167 93° East 529 609 40,000  Level Oakland Oceanic (ODAPS)
Wed 10:30:00 AM 41.0298 -150.7324 93° East 516 594 40,000  Level FlightAware Transoceanic
Wed 10:31:00 AM 41.0228 -150.5492 93° East 516 594 40,000  Level FlightAware Transoceanic
Wed 10:32:00 AM 41.0155 -150.3661 93° East 516 594 40,000  Level FlightAware Transoceanic
Wed 10:33:00 AM 41.0079 -150.1830 93° East 516 594 40,000  Level FlightAware Transoceanic
Wed 10:33:39 AM 41.0000 -150.0000 94° East 536 617 40,000  Level Oakland Oceanic (ODAPS)
Wed 10:34:00 AM 41.0000 -150.0000 94° East 516 594 40,000  Level FlightAware Transoceanic
Wed 10:35:00 AM 40.9772 -149.6029 94° East 529 609 40,000  Level FlightAware Transoceanic
Wed 10:36:00 AM 40.9653 -149.4045 95° East 529 609 40,000  Level FlightAware Transoceanic
Wed 10:37:00 AM 40.9530 -149.2061 95° East 529 609 40,000  Level FlightAware Transoceanic
Wed 10:38:00 AM 40.9404 -149.0078 95° East 529 609 40,000  Level FlightAware Transoceanic
Wed 10:39:00 AM 40.9290 -148.8325 95° East 536 617 40,000  Level FlightAware Transoceanic
Wed 10:40:00 AM 40.9160 -148.6382 95° East 536 617 40,000  Level FlightAware Transoceanic
Wed 10:41:00 AM 40.9027 -148.4439 95° East 536 617 40,000  Level FlightAware Transoceanic
Wed 10:42:00 AM 40.8891 -148.2497 95° East 536 617 40,000  Level FlightAware Transoceanic
Wed 10:43:00 AM 40.8751 -148.0556 95° East 536 617 40,000  Level FlightAware Transoceanic
Wed 10:43:16 AM 40.8833 -148.1167 95° East 542 624 40,000  Level Oakland Oceanic (ODAPS)
Wed 10:44:00 AM 40.8609 -147.8616 96° East 536 617 40,000  Level FlightAware Transoceanic
Wed 10:45:00 AM 40.8463 -147.6677 96° East 536 617 40,000  Level FlightAware Transoceanic
Wed 10:46:00 AM 40.8313 -147.4739 96° East 536 617 40,000  Level FlightAware Transoceanic
Wed 10:47:00 AM 40.8161 -147.2801 96° East 536 617 40,000  Level FlightAware Transoceanic
Wed 10:48:00 AM 40.8005 -147.0865 96° East 536 617 40,000  Level FlightAware Transoceanic
Wed 10:49:00 AM 40.7922 -146.9450 96° East 542 624 40,000  Level FlightAware Transoceanic
Wed 10:50:00 AM 40.7758 -146.7500 96° East 542 624 40,000  Level FlightAware Transoceanic
Wed 10:51:00 AM 40.7591 -146.5552 97° East 542 624 40,000  Level FlightAware Transoceanic
Wed 10:52:00 AM 40.7421 -146.3604 97° East 542 624 40,000  Level FlightAware Transoceanic
Wed 10:53:00 AM 40.7248 -146.1658 97° East 542 624 40,000  Level FlightAware Transoceanic
Wed 10:54:00 AM 40.7071 -145.9712 97° East 542 624 40,000  Level FlightAware Transoceanic
Wed 10:55:00 AM 40.6892 -145.7767 97° East 542 624 40,000  Level FlightAware Transoceanic
Wed 10:56:00 AM 40.6709 -145.5824 97° East 542 624 40,000  Level FlightAware Transoceanic
Wed 10:57:00 AM 40.6522 -145.3882 97° East 542 624 40,000  Level FlightAware Transoceanic
Wed 10:57:08 AM 40.6500 -145.3833 97° East 550 633 40,000  Level Oakland Oceanic (ODAPS)
Wed 10:58:00 AM 40.6333 -145.1940 97° East 542 624 40,000  Level FlightAware Transoceanic
Wed 10:59:00 AM 40.6140 -145.0000 98° East 542 624 40,000  Level FlightAware Transoceanic
Wed 11:00:00 AM 40.5944 -144.8061 98° East 542 624 40,000  Level FlightAware Transoceanic
Wed 11:01:00 AM 40.5744 -144.6123 98° East 542 624 40,000  Level FlightAware Transoceanic
Wed 11:02:00 AM 40.5542 -144.4186 98° East 542 624 40,000  Level FlightAware Transoceanic
Wed 11:03:00 AM 40.5272 -144.1784 98° East 550 633 40,000  Level FlightAware Transoceanic
Wed 11:04:00 AM 40.5055 -143.9780 98° East 550 633 40,000  Level FlightAware Transoceanic
Wed 11:05:00 AM 40.4835 -143.7777 98° East 550 633 40,000  Level FlightAware Transoceanic
Wed 11:06:00 AM 40.4611 -143.5776 98° East 550 633 40,000  Level FlightAware Transoceanic
Wed 11:07:00 AM 40.4384 -143.3776 99° East 550 633 40,000  Level FlightAware Transoceanic
Wed 11:08:00 AM 40.4154 -143.1777 99° East 550 633 40,000  Level FlightAware Transoceanic
Wed 11:09:00 AM 40.3920 -142.9780 99° East 550 633 40,000  Level FlightAware Transoceanic
Wed 11:10:00 AM 40.3682 -142.7784 99° East 550 633 40,000  Level FlightAware Transoceanic
Wed 11:11:00 AM 40.3441 -142.5790 99° East 550 633 40,000  Level FlightAware Transoceanic
Wed 11:11:00 AM 40.3500 -142.6167 99° East 558 642 40,000  Level Oakland Oceanic (ODAPS)
Wed 11:12:00 AM 40.3197 -142.3797 99° East 550 633 40,000  Level FlightAware Transoceanic
Wed 11:13:00 AM 40.2949 -142.1806 99° East 550 633 40,000  Level FlightAware Transoceanic
Wed 11:14:00 AM 40.2698 -141.9816 99° East 550 633 40,000  Level FlightAware Transoceanic
Wed 11:15:00 AM 40.2443 -141.7827 100° East 550 633 40,000  Level FlightAware Transoceanic
Wed 11:16:00 AM 40.2185 -141.5840 100° East 550 633 40,000  Level FlightAware Transoceanic
Wed 11:17:00 AM 40.1958 -141.4056 100° East 558 642 40,000  Level FlightAware Transoceanic
Wed 11:18:00 AM 40.1689 -141.2043 100° East 558 642 40,000  Level FlightAware Transoceanic
Wed 11:19:00 AM 40.1416 -141.0032 100° East 558 642 40,000  Level FlightAware Transoceanic
Wed 11:20:00 AM 40.1140 -140.8022 100° East 558 642 40,000  Level FlightAware Transoceanic
Wed 11:21:00 AM 40.0860 -140.6014 100° East 558 642 40,000  Level FlightAware Transoceanic
Wed 11:22:00 AM 40.0577 -140.4008 101° East 558 642 40,000  Level FlightAware Transoceanic
Wed 11:23:00 AM 40.0290 -140.2003 101° East 558 642 40,000  Level FlightAware Transoceanic
Wed 11:24:00 AM 40.0000 -140.0000 94° East 558 642 40,000  Level FlightAware Transoceanic
Wed 11:24:03 AM 40.0000 -140.0000 94° East 564 649 40,000  Level Oakland Oceanic (ODAPS)
Wed 11:24:52 AM 39.9833 -139.8167 94° East 567 652 40,000  Level Oakland Oceanic (ODAPS)
Wed 11:25:00 AM 39.9883 -139.7934 94° East 558 642 40,000  Level FlightAware Transoceanic
Wed 11:26:00 AM 39.9761 -139.5869 94° East 558 642 40,000  Level FlightAware Transoceanic
Wed 11:27:00 AM 39.9636 -139.3804 95° East 558 642 40,000  Level FlightAware Transoceanic
Wed 11:28:00 AM 39.9508 -139.1741 95° East 558 642 40,000  Level FlightAware Transoceanic
Wed 11:29:00 AM 39.9376 -138.9678 95° East 558 642 40,000  Level FlightAware Transoceanic
Wed 11:30:00 AM 39.9256 -138.7863 95° East 564 649 40,000  Level FlightAware Transoceanic
Wed 11:31:00 AM 39.9060 -138.5759 95° East 567 652 40,000  Level FlightAware Transoceanic
Wed 11:32:00 AM 39.8918 -138.3694 95° East 567 652 40,000  Level FlightAware Transoceanic
Wed 11:33:00 AM 39.8772 -138.1629 95° East 567 652 40,000  Level FlightAware Transoceanic
Wed 11:34:00 AM 39.8623 -137.9566 95° East 567 652 40,000  Level FlightAware Transoceanic
Wed 11:35:00 AM 39.8470 -137.7503 96° East 567 652 40,000  Level FlightAware Transoceanic
Wed 11:36:00 AM 39.8314 -137.5442 96° East 567 652 40,000  Level FlightAware Transoceanic
Wed 11:37:00 AM 39.8154 -137.3381 96° East 567 652 40,000  Level FlightAware Transoceanic
Wed 11:38:00 AM 39.7990 -137.1322 96° East 567 652 40,000  Level FlightAware Transoceanic
Wed 11:38:44 AM 39.7833 -136.9667 96° East 577 664 40,000  Level Oakland Oceanic (ODAPS)
Wed 11:39:00 AM 39.7823 -136.9263 96° East 567 652 40,000  Level FlightAware Transoceanic
Wed 11:40:00 AM 39.7652 -136.7205 96° East 567 652 40,000  Level FlightAware Transoceanic
Wed 11:41:00 AM 39.7477 -136.5149 96° East 567 652 40,000  Level FlightAware Transoceanic
Wed 11:42:00 AM 39.7299 -136.3093 96° East 567 652 40,000  Level FlightAware Transoceanic
Wed 11:43:00 AM 39.7117 -136.1039 97° East 567 652 40,000  Level FlightAware Transoceanic
Wed 11:44:00 AM 39.6932 -135.8985 97° East 567 652 40,000  Level FlightAware Transoceanic
Wed 11:45:00 AM 39.6755 -135.7265 97° East 577 664 40,000  Level FlightAware Transoceanic
Wed 11:46:00 AM 39.6562 -135.5202 97° East 577 664 40,000  Level FlightAware Transoceanic
Wed 11:47:00 AM 39.6366 -135.3140 97° East 577 664 40,000  Level FlightAware Transoceanic
Wed 11:48:00 AM 39.6166 -135.1079 97° East 577 664 40,000  Level FlightAware Transoceanic
Wed 11:49:00 AM 39.5962 -134.9019 97° East 577 664 40,000  Level FlightAware Transoceanic
Wed 11:50:00 AM 39.5755 -134.6961 98° East 577 664 40,000  Level FlightAware Transoceanic
Wed 11:51:00 AM 39.5545 -134.4904 98° East 577 664 40,000  Level FlightAware Transoceanic
Wed 11:52:00 AM 39.5330 -134.2848 98° East 577 664 40,000  Level FlightAware Transoceanic
Wed 11:52:35 AM 39.5167 -134.1333 98° East 575 662 40,000  Level Oakland Oceanic (ODAPS)
Wed 11:53:00 AM 39.5112 -134.0793 98° East 577 664 40,000  Level FlightAware Transoceanic
Wed 11:54:00 AM 39.4891 -133.8740 98° East 577 664 40,000  Level FlightAware Transoceanic
Wed 11:55:00 AM 39.4665 -133.6688 98° East 577 664 40,000  Level FlightAware Transoceanic
Wed 11:56:00 AM 39.4436 -133.4638 98° East 577 664 40,000  Level FlightAware Transoceanic
Wed 11:57:00 AM 39.4204 -133.2588 98° East 577 664 40,000  Level FlightAware Transoceanic
Wed 11:58:00 AM 39.3840 -132.9463 99° East 575 662 40,000  Level FlightAware Transoceanic
Wed 11:59:00 AM 39.3607 -132.7489 99° East 575 662 40,000  Level FlightAware Transoceanic
Wed 12:00:00 PM 39.3371 -132.5516 99° East 575 662 40,000  Level FlightAware Transoceanic
Wed 12:01:00 PM 39.3131 -132.3545 99° East 575 662 40,000  Level FlightAware Transoceanic
Wed 12:02:00 PM 39.2889 -132.1575 99° East 575 662 40,000  Level FlightAware Transoceanic
Wed 12:03:00 PM 39.2643 -131.9606 99° East 575 662 40,000  Level FlightAware Transoceanic
Wed 12:04:00 PM 39.2393 -131.7639 99° East 575 662 40,000  Level FlightAware Transoceanic
Wed 12:05:00 PM 39.2140 -131.5674 99° East 575 662 40,000  Level FlightAware Transoceanic
Wed 12:06:00 PM 39.1884 -131.3709 100° East 575 662 40,000  Level FlightAware Transoceanic
Wed 12:06:28 PM 39.1833 -131.3167 100° East 568 654 40,000  Level Oakland Oceanic (ODAPS)
Wed 12:07:00 PM 39.1625 -131.1746 100° East 575 662 40,000  Level FlightAware Transoceanic
Wed 12:08:00 PM 39.1362 -130.9785 100° East 575 662 40,000  Level FlightAware Transoceanic
Wed 12:09:00 PM 39.1096 -130.7825 100° East 575 662 40,000  Level FlightAware Transoceanic
Wed 12:10:00 PM 39.0827 -130.5866 100° East 575 662 40,000  Level FlightAware Transoceanic
Wed 12:11:00 PM 39.0555 -130.3909 100° East 575 662 40,000  Level FlightAware Transoceanic
Wed 12:12:00 PM 39.0271 -130.1877 100° East 568 654 40,000  Level FlightAware Transoceanic
Wed 12:13:00 PM 39.0000 -130.0000 102° East 568 654 40,000  Level FlightAware Transoceanic
Wed 12:13:10 PM 39.0000 -130.0000 102° East 560 644 40,000  Level Oakland Oceanic (ODAPS)
Wed 12:14:00 PM 38.9668 -129.7986 102° East 568 654 40,000  Level FlightAware Transoceanic
Wed 12:15:00 PM 38.9333 -129.5974 102° East 568 654 40,000  Level FlightAware Transoceanic
Wed 12:16:00 PM 38.8995 -129.3965 102° East 568 654 40,000  Level FlightAware Transoceanic
Wed 12:17:00 PM 38.8653 -129.1957 102° East 568 654 40,000  Level FlightAware Transoceanic
Wed 12:18:00 PM 38.8308 -128.9951 103° East 568 654 40,000  Level FlightAware Transoceanic
Wed 12:19:00 PM 38.7959 -128.7946 103° East 560 644 40,000  Level FlightAware Transoceanic
Wed 12:20:00 PM 38.7607 -128.5944 103° East 560 644 40,000  Level FlightAware Transoceanic
Wed 12:20:15 PM 38.7667 -128.6000 103° East 558 642 40,000  Level Oakland Oceanic (ODAPS)
Wed 12:21:00 PM 38.7251 -128.3944 103° East 560 644 40,000  Level FlightAware Transoceanic
Wed 12:22:00 PM 38.6892 -128.1946 103° East 560 644 40,000  Level FlightAware Transoceanic
Wed 12:23:00 PM 38.6530 -127.9950 103° East 560 644 40,000  Level FlightAware Transoceanic
Wed 12:24:00 PM 38.6164 -127.7956 103° East 560 644 40,000  Level FlightAware Transoceanic
Wed 12:25:00 PM 38.5794 -127.5964 103° East 560 644 40,000  Level FlightAware Transoceanic
Wed 12:26:00 PM 38.5437 -127.3987 104° East 558 642 40,000  Level FlightAware Transoceanic
Wed 12:26:11 PM 38.5603 -127.4914 111° Southeast 557 641 40,000  Level Oakland Center
Wed 12:27:00 PM 38.5054 -127.1993 104° East 558 642 40,000 -98 Level FlightAware Transoceanic
Wed 12:27:12 PM 38.5244 -127.3033 104° East 552 635 39,900  Descending Oakland Center
Wed 12:28:00 PM 38.4667 -127.0000 111° Southeast 558 642 40,000 97 Climbing FlightAware Transoceanic
Wed 12:28:14 PM 38.4892 -127.1139 103° East 551 634 40,000  Level Oakland Center
Wed 12:29:00 PM 38.4158 -126.8324 111° Southeast 558 642 40,000  Level FlightAware Transoceanic
Wed 12:29:15 PM 38.4364 -126.8908 107° East 550 633 40,000  Level Oakland Center
Wed 12:30:00 PM 38.3646 -126.6650 111° Southeast 558 642 40,000 -98 Level FlightAware Transoceanic
Wed 12:30:16 PM 38.3797 -126.7089 112° Southeast 553 636 39,900  Descending Oakland Center
Wed 12:31:00 PM 38.3132 -126.4979 111° Southeast 558 642 40,000  Climbing FlightAware Transoceanic
Wed 12:31:17 PM 38.3244 -126.5283 111° Southeast 551 634 39,900  Descending Oakland Center
Wed 12:32:18 PM 38.2689 -126.3500 112° Southeast 546 628 40,000 49 Climbing Oakland Center
Wed 12:33:20 PM 38.2186 -126.1864 111° Southeast 552 635 40,000 -49 Level Oakland Center
Wed 12:34:21 PM 38.1503 -125.9706 112° Southeast 551 634 39,900  Descending Oakland Center
Wed 12:35:22 PM 38.0947 -125.7914 111° Southeast 548 631 40,000 -98 Climbing Oakland Center
Wed 12:36:23 PM 38.0367 -125.6122 112° Southeast 550 633 39,700 -541 Descending Oakland Center
Wed 12:37:24 PM 37.9825 -125.4325 111° Southeast 549 632 38,900 -341 Descending Oakland Center
Wed 12:38:26 PM 37.9353 -125.2531 108° East 541 623 39,000  Climbing Oakland Center
Wed 12:39:27 PM 37.8861 -125.0728 109° East 542 624 38,900 -49 Descending Oakland Center
Wed 12:40:28 PM 37.8369 -124.8939 109° East 542 624 38,900  Level Oakland Center
Wed 12:41:29 PM 37.7875 -124.7117 109° East 547 629 38,900 49 Level Oakland Center
Wed 12:42:31 PM 37.7361 -124.5297 110° East 552 635 39,000  Climbing Oakland Center
Wed 12:43:32 PM 37.6758 -124.3150 109° East 546 628 38,900  Descending Oakland Center
Wed 12:44:33 PM 37.6261 -124.1353 109° East 545 627 39,000  Climbing Oakland Center
Wed 12:45:34 PM 37.5753 -123.9556 110° East 545 627 38,900  Descending Oakland Center
Wed 12:46:36 PM 37.5231 -123.7753 110° East 549 632 39,000  Climbing Oakland Center
Wed 12:47:37 PM 37.4711 -123.5969 110° East 548 631 38,900  Descending Oakland Center
Wed 12:51:40 PM 37.2636 -122.8900 110° East 538 619 39,000 14 Climbing FlightAware ADS-B (EPRZ / RZE)
Wed 12:54:56 PM 36.9798 -122.3480 123° Southeast 540 621 39,000  Level FlightAware ADS-B
Wed 12:55:49 PM 36.9050 -122.2110 124° Southeast 534 615 39,000  Level FlightAware ADS-B
Wed 12:56:39 PM 36.8368 -122.0860 124° Southeast 533 613 39,000  Level FlightAware ADS-B
Wed 12:59:26 PM 36.6041 -121.6630 124° Southeast 533 613 39,000  Level FlightAware ADS-B
Wed 12:59:56 PM 36.5683 -121.6008 124° Southeast 531 611 39,000  Level Los Angeles Center
Wed 01:00:53 PM 36.5011 -121.4797 125° Southeast 533 613 39,000 -51 Level Oakland Center
Wed 01:01:54 PM 36.4006 -121.2986 125° Southeast 532 612 38,900 -49 Descending Oakland Center
Wed 01:02:56 PM 36.3150 -121.1497 125° Southeast 532 612 38,900 49 Level Oakland Center
Wed 01:03:57 PM 36.2303 -120.9994 125° Southeast 531 611 39,000  Climbing Oakland Center
Wed 01:04:58 PM 36.1464 -120.8483 124° Southeast 532 612 38,900 -49 Descending Oakland Center
Wed 01:05:59 PM 36.0947 -120.6781 111° Southeast 533 613 38,900 49 Level Oakland Center
Wed 01:07:00 PM 36.0606 -120.4931 103° East 543 625 39,000  Climbing Oakland Center
Wed 01:08:02 PM 36.0231 -120.3122 104° East 544 626 38,900  Descending Oakland Center
Wed 01:09:03 PM 35.9222 -120.1828 134° Southeast 523 602 39,000 49 Climbing Oakland Center
Wed 01:10:04 PM 35.8008 -120.0842 147° Southeast 518 596 39,000 -49 Level Oakland Center
Wed 01:11:06 PM 35.6792 -119.9842 146° Southeast 521 600 38,900 -829 Descending Oakland Center
Wed 01:12:07 PM 35.5594 -119.8861 146° Southeast 512 589 37,300 -2,213 Descending Oakland Center
Wed 01:13:08 PM 35.4389 -119.7886 147° Southeast 515 593 34,400 -2,410 Descending Oakland Center
Wed 01:14:09 PM 35.3156 -119.6903 147° Southeast 522 601 32,400 -2,488 Descending Oakland Center
Wed 01:15:11 PM 35.1975 -119.5944 146° Southeast 513 590 29,300 -2,878 Descending Oakland Center
Wed 01:16:12 PM 35.0603 -119.4753 145° Southeast 507 583 26,500 -2,115 Descending Oakland Center
Wed 01:17:13 PM 34.9514 -119.3833 145° Southeast 483 556 25,000 -1,561 Descending Oakland Center
Wed 01:18:15 PM 34.8494 -119.2956 145° Southeast 463 533 23,300 -1,659 Descending Oakland Center
Wed 01:19:16 PM 34.7497 -119.2111 145° Southeast 449 517 21,600 -1,667 Descending Oakland Center
Wed 01:20:39 PM 34.6114 -119.0953 145° Southeast 427 491 19,300 -1,614 Descending Los Angeles Center
Wed 01:21:41 PM 34.5183 -119.0158 145° Southeast 410 472 17,700 -1,548 Descending Los Angeles Center
Wed 01:22:43 PM 34.4278 -118.9392 145° Southeast 396 456 16,100 -1,548 Descending Los Angeles Center
Wed 01:23:45 PM 34.3353 -118.8725 149° Southeast 384 442 14,500 -1,548 Descending Los Angeles Center
Wed 01:24:47 PM 34.2356 -118.8361 163° South 374 430 12,900 -1,584 Descending Los Angeles Center
Wed 01:25:50 PM 34.1197 -118.7944 163° South 361 415 11,200 -1,200 Descending Los Angeles Center
Wed 01:26:52 PM 34.0581 -118.7128 132° Southeast 328 377 10,400 -823 Descending Los Angeles Center
Wed 01:27:54 PM 34.0381 -118.6094 103° East 314 361 9,500 -1,065 Descending Los Angeles Center
Wed 01:28:56 PM 34.0178 -118.5003 103° East 310 357 8,200 -1,016 Descending Los Angeles Center
Wed 01:29:58 PM 34.0172 -118.4142 90° East 283 326 7,400 -774 Descending Los Angeles Center
Wed 01:31:00 PM 34.0303 -118.3211 80° East 282 325 6,600 -919 Descending Los Angeles Center
Wed 01:32:02 PM 34.0431 -118.2367 80° East 263 303 5,500 -1,632 Descending Los Angeles Center
Wed 01:33:05 PM 34.0572 -118.1419 80° East 244 281 3,200 -1,392 Descending Los Angeles Center
Wed 01:34:07 PM 34.0161 -118.0967 138° Southeast 236 272 2,600 -484 Descending Los Angeles Center
Wed 01:35:09 PM 33.9794 -118.1433 227° Southwest 217 250 2,200 -194 Descending Los Angeles Center
Wed 01:36:11 PM 33.9719 -118.2142 263° West 216 249 2,200  Level Los Angeles Center
Wed 01:37:13 PM 33.9658 -118.2767 263° West 204 235 2,200 -484 Level Los Angeles Center
Wed 01:38:15 PM 33.9586 -118.3447 263° West 184 212 1,200 -871 Descending Los Angeles Center
Wed 01:39:17 PM 33.9542 -118.3928 264° West 163 188 400 -480 Descending Los Angeles Center
Wed 01:40:20 PM 33.9492 -118.4378 262° West 157 181 200 -190 Descending Los Angeles Center

Login

Don't have an account? Register now (free) for customized features, flight alerts, and more!